Time;durP1;ratioP1;P1;durP2;ratioP2;P2;SDS_P1;SDS_P2;PMS_P1;PMS_P2;Temp;Humidity;BMP_temperature;BMP_pressure;BME280_temperature;BME280_humidity;BME280_pressure;Samples;Min_cycle;Max_cycle;Signal;HPM_P1;HPM_P2
2022/03/06 00:00:31;;;;;;;7.93;5.87;;;;;;;1.86;65.72;102103.41;5004523;28;20316;-56
2022/03/06 00:02:57;;;;;;;8.90;7.63;;;;;;;1.81;65.68;102103.94;5003496;28;20267;-56
2022/03/06 00:05:24;;;;;;;7.43;6.20;;;;;;;1.78;65.33;102116.69;5006897;28;20860;-56
2022/03/06 00:07:53;;;;;;;9.80;7.23;;;;;;;1.85;66.46;102109.34;5004675;28;20331;-55
2022/03/06 00:10:20;;;;;;;7.50;6.53;;;;;;;1.84;66.03;102106.69;5001313;28;20229;-55
2022/03/06 00:12:46;;;;;;;8.10;7.30;;;;;;;1.71;66.73;102112.88;5002897;28;20575;-55
2022/03/06 00:15:13;;;;;;;8.13;7.30;;;;;;;1.59;67.81;102113.06;5003186;28;20232;-55
2022/03/06 00:17:39;;;;;;;8.50;7.63;;;;;;;1.49;67.91;102112.44;5004683;28;20711;-56
2022/03/06 00:20:08;;;;;;;9.30;6.80;;;;;;;1.42;68.72;102101.72;5000842;28;20240;-56
2022/03/06 00:22:35;;;;;;;12.63;7.47;;;;;;;1.46;67.90;102104.50;5004750;28;20886;-56
2022/03/06 00:25:03;;;;;;;12.13;6.67;;;;;;;1.62;67.46;102109.78;5009055;28;20263;-56
2022/03/06 00:27:29;;;;;;;8.57;7.67;;;;;;;1.70;66.22;102107.63;5004045;28;20252;-55
2022/03/06 00:29:55;;;;;;;11.13;7.40;;;;;;;1.63;66.29;102111.53;5011187;28;20267;-56
2022/03/06 00:32:22;;;;;;;8.60;7.67;;;;;;;1.71;66.45;102115.44;5004475;28;20235;-57
2022/03/06 00:34:48;;;;;;;9.37;7.73;;;;;;;1.64;67.39;102113.31;5008724;28;20271;-57
2022/03/06 00:37:15;;;;;;;9.83;7.83;;;;;;;1.60;67.76;102111.38;5008251;28;20269;-55
2022/03/06 00:39:41;;;;;;;7.40;6.33;;;;;;;1.55;66.96;102113.69;5009008;28;20244;-56
2022/03/06 00:42:10;;;;;;;10.53;7.53;;;;;;;1.53;66.55;102119.59;5012767;28;20225;-57
2022/03/06 00:44:36;;;;;;;10.80;7.33;;;;;;;1.53;67.17;102115.28;5009657;28;20767;-57
2022/03/06 00:47:03;;;;;;;8.30;7.37;;;;;;;1.51;67.71;102116.00;5009388;28;20239;-56
2022/03/06 00:49:30;;;;;;;10.97;7.70;;;;;;;1.40;67.98;102118.88;5006076;28;20317;-56
2022/03/06 00:51:56;;;;;;;8.53;6.87;;;;;;;1.35;68.06;102120.28;5011333;28;20239;-56
2022/03/06 00:54:22;;;;;;;7.53;6.77;;;;;;;1.37;67.84;102117.78;5011871;28;20271;-55
2022/03/06 00:56:49;;;;;;;7.27;6.57;;;;;;;1.39;67.89;102119.66;5007811;28;20710;-55
2022/03/06 00:59:17;;;;;;;9.23;7.43;;;;;;;1.35;68.17;102120.28;5007005;28;20310;-57
2022/03/06 01:01:43;;;;;;;8.77;6.67;;;;;;;1.35;67.55;102114.22;5008017;28;20271;-58
2022/03/06 01:04:09;;;;;;;8.93;7.60;;;;;;;1.24;67.76;102116.19;5006254;28;20263;-57
2022/03/06 01:06:36;;;;;;;8.63;7.37;;;;;;;1.24;68.14;102110.13;5008750;28;20549;-54
2022/03/06 01:09:04;;;;;;;10.30;6.73;;;;;;;1.25;68.21;102115.38;5005896;28;20240;-56
2022/03/06 01:11:30;;;;;;;7.83;7.03;;;;;;;1.23;68.06;102129.00;5005074;28;20244;-56
2022/03/06 01:13:57;;;;;;;8.57;7.33;;;;;;;1.30;68.24;102124.31;5004560;28;20232;-55
2022/03/06 01:16:25;;;;;;;10.13;7.53;;;;;;;1.35;68.17;102120.28;5007792;28;20261;-55
2022/03/06 01:18:51;;;;;;;10.57;7.57;;;;;;;1.26;68.30;102111.97;5007128;28;20275;-55
2022/03/06 01:21:17;;;;;;;10.97;7.40;;;;;;;1.21;68.89;102120.28;5012360;28;20234;-57
2022/03/06 01:23:44;;;;;;;10.73;7.70;;;;;;;1.27;67.62;102116.38;5007983;28;20244;-57
2022/03/06 01:26:10;;;;;;;11.27;7.70;;;;;;;1.27;67.77;102115.50;5012305;28;20306;-56
2022/03/06 01:28:36;;;;;;;9.27;8.33;;;;;;;1.32;67.40;102114.94;5010413;28;20236;-56
2022/03/06 01:31:03;;;;;;;8.77;7.97;;;;;;;1.35;67.83;102112.53;5007233;28;20263;-56
2022/03/06 01:33:30;;;;;;;13.90;8.33;;;;;;;1.32;67.42;102109.75;4995987;28;20259;-55
2022/03/06 01:35:57;;;;;;;10.90;7.70;;;;;;;1.32;67.83;102109.75;5002960;28;20259;-57
2022/03/06 01:38:24;;;;;;;8.17;6.93;;;;;;;1.27;68.04;102106.03;5003122;28;20241;-56
2022/03/06 01:40:50;;;;;;;9.53;7.13;;;;;;;1.25;68.65;102106.72;5001963;28;20236;-55
2022/03/06 01:43:16;;;;;;;8.00;7.13;;;;;;;1.21;68.60;102110.84;5002022;28;20244;-54
2022/03/06 01:45:43;;;;;;;9.07;7.70;;;;;;;1.07;69.55;102116.88;5000889;28;20249;-57
2022/03/06 01:48:09;;;;;;;8.07;6.40;;;;;;;1.07;69.89;102119.47;4998543;28;20247;-55
2022/03/06 01:50:38;;;;;;;11.10;7.73;;;;;;;1.05;70.06;102123.66;5002687;28;20240;-56
2022/03/06 01:53:06;;;;;;;12.83;7.60;;;;;;;1.14;69.21;102124.22;5000968;28;20291;-55
2022/03/06 01:55:33;;;;;;;8.90;7.87;;;;;;;1.11;69.68;102121.44;5001222;28;20263;-56
2022/03/06 01:58:02;;;;;;;11.53;8.03;;;;;;;0.97;69.97;102118.03;5000267;28;20289;-56
2022/03/06 02:00:30;;;;;;;11.77;8.57;;;;;;;0.93;70.48;102114.34;4998928;28;20294;-56
2022/03/06 02:02:57;;;;;;;9.53;7.40;;;;;;;0.93;70.60;102124.69;5005581;28;20243;-55
2022/03/06 02:05:24;;;;;;;10.50;8.77;;;;;;;0.95;70.91;102117.94;5002439;28;20614;-56
2022/03/06 02:07:51;;;;;;;9.87;8.07;;;;;;;0.89;71.20;102112.41;5003849;28;20263;-56
2022/03/06 02:10:18;;;;;;;10.37;8.77;;;;;;;0.87;71.38;102108.81;5001464;28;20306;-58
2022/03/06 02:12:46;;;;;;;8.63;7.73;;;;;;;0.87;71.65;102106.22;4997687;28;20260;-57
2022/03/06 02:15:13;;;;;;;9.50;8.17;;;;;;;0.99;71.32;102108.69;4998532;28;20724;-55
2022/03/06 02:17:40;;;;;;;14.07;8.70;;;;;;;0.98;71.66;102106.88;5001122;28;20260;-58
2022/03/06 02:20:09;;;;;;;8.63;7.73;;;;;;;1.11;70.37;102108.50;4999584;28;20240;-57
2022/03/06 02:22:39;;;;;;;14.20;10.13;;;;;;;1.26;69.80;102093.88;4999004;28;20661;-57
2022/03/06 02:25:07;;;;;;;9.57;8.50;;;;;;;1.13;70.35;102097.44;4999480;28;20743;-57
2022/03/06 02:27:34;;;;;;;12.27;9.17;;;;;;;1.27;70.02;102095.69;4994925;28;20585;-56
2022/03/06 02:30:01;;;;;;;12.63;9.17;;;;;;;1.17;70.12;102093.34;4998431;28;20301;-56
2022/03/06 02:32:27;;;;;;;10.80;8.97;;;;;;;1.17;69.36;102094.25;4997529;28;20342;-55
2022/03/06 02:34:53;;;;;;;13.57;8.87;;;;;;;1.12;69.07;102089.59;5002256;28;20297;-57
2022/03/06 02:37:21;;;;;;;10.70;8.50;;;;;;;1.04;69.71;102093.41;5001207;28;20248;-56
2022/03/06 02:39:49;;;;;;;8.90;7.80;;;;;;;1.05;69.48;102082.25;5002706;28;20659;-57
2022/03/06 02:42:26;;;;;;;9.23;7.50;;;;;;;0.97;69.48;102084.41;5001704;28;20314;-57
2022/03/06 02:44:52;;;;;;;11.10;8.07;;;;;;;0.98;69.68;102087.88;4997483;28;20653;-57
2022/03/06 02:50:40;;;;;;;7.73;6.93;;;;;;;1.02;69.90;102089.84;5001335;28;20738;-57
2022/03/06 02:53:09;;;;;;;8.17;7.40;;;;;;;0.93;70.17;102082.44;5002502;28;20330;-57
2022/03/06 02:55:37;;;;;;;10.77;7.90;;;;;;;0.87;70.65;102085.53;5003057;28;20229;-55
2022/03/06 02:58:04;;;;;;;9.90;7.43;;;;;;;0.81;70.58;102072.28;5005832;28;20225;-58
2022/03/06 03:00:30;;;;;;;7.37;6.67;;;;;;;0.79;70.31;102076.44;5006747;28;20244;-57
2022/03/06 03:02:57;;;;;;;6.87;6.17;;;;;;;0.81;70.22;102081.69;5006296;28;20251;-56
2022/03/06 03:05:23;;;;;;;8.73;6.80;;;;;;;0.87;68.11;102075.19;5006038;28;20314;-57
2022/03/06 03:07:50;;;;;;;6.93;6.20;;;;;;;0.92;67.40;102075.50;5004619;28;20254;-56
2022/03/06 03:10:18;;;;;;;6.83;5.47;;;;;;;1.01;66.24;102088.06;5005436;28;20256;-58
2022/03/06 03:12:46;;;;;;;6.63;5.67;;;;;;;0.98;66.57;102085.28;5006679;28;20294;-57
2022/03/06 03:15:13;;;;;;;7.70;6.73;;;;;;;0.95;66.36;102075.69;5005814;28;20252;-57
2022/03/06 03:17:40;;;;;;;8.90;7.23;;;;;;;0.87;66.41;102082.97;5006204;28;20263;-57
2022/03/06 03:20:08;;;;;;;7.40;5.50;;;;;;;0.84;66.34;102077.63;5005339;28;20717;-55
2022/03/06 03:22:35;;;;;;;9.47;6.30;;;;;;;0.85;66.55;102079.41;5005911;28;20237;-58
2022/03/06 03:25:01;;;;;;;9.10;5.60;;;;;;;0.82;66.55;102080.91;5004123;28;20287;-55
2022/03/06 03:27:27;;;;;;;5.80;5.10;;;;;;;0.99;65.66;102072.47;5006428;28;20297;-55
2022/03/06 03:29:55;;;;;;;7.90;5.90;;;;;;;1.22;65.34;102081.56;5006153;28;20342;-58
2022/03/06 03:32:21;;;;;;;8.13;5.67;;;;;;;1.23;64.96;102085.03;5004606;28;20318;-57
2022/03/06 03:34:48;;;;;;;9.60;5.93;;;;;;;1.18;65.06;102082.19;5004565;28;20270;-56
2022/03/06 03:37:14;;;;;;;6.40;5.17;;;;;;;1.13;65.24;102078.47;5005470;28;20278;-56
2022/03/06 03:39:41;;;;;;;6.40;5.37;;;;;;;1.11;65.48;102085.22;5003411;28;20243;-54
2022/03/06 03:42:07;;;;;;;7.97;5.53;;;;;;;1.16;64.68;102091.56;5005401;28;20309;-56
2022/03/06 03:44:34;;;;;;;9.80;5.77;;;;;;;1.15;64.72;102089.78;5007085;28;20233;-55
2022/03/06 03:47:01;;;;;;;7.57;5.43;;;;;;;1.15;64.88;102094.94;5010412;28;20298;-56
2022/03/06 03:49:28;;;;;;;5.80;4.90;;;;;;;1.02;64.57;102092.44;5008640;28;20279;-55
2022/03/06 03:51:54;;;;;;;6.80;5.33;;;;;;;1.03;64.76;102087.38;5009495;28;20244;-57
2022/03/06 03:54:21;;;;;;;8.80;4.80;;;;;;;0.90;65.28;102090.91;5011183;28;20270;-56
2022/03/06 03:56:47;;;;;;;6.77;5.10;;;;;;;0.92;65.24;102091.00;5004413;28;20314;-56
2022/03/06 03:59:14;;;;;;;4.37;3.97;;;;;;;0.89;65.24;102090.81;5004153;28;20282;-55
2022/03/06 04:01:40;;;;;;;4.67;3.80;;;;;;;0.88;65.23;102094.22;5006027;28;20243;-56
2022/03/06 04:04:08;;;;;;;3.70;3.37;;;;;;;0.85;65.66;102099.19;5004495;28;20282;-56
2022/03/06 04:06:34;;;;;;;3.77;3.13;;;;;;;0.85;65.12;102094.91;5004919;28;20289;-56
2022/03/06 04:09:00;;;;;;;5.77;4.10;;;;;;;0.92;64.96;102106.53;5004549;28;20345;-57
2022/03/06 04:11:27;;;;;;;4.73;3.13;;;;;;;0.93;64.13;102092.78;5004742;28;20778;-55
2022/03/06 04:13:53;;;;;;;5.70;4.17;;;;;;;0.89;63.73;102094.28;5007323;28;20290;-55
2022/03/06 04:16:19;;;;;;;4.43;3.03;;;;;;;0.94;63.48;102095.44;5009075;28;20240;-57
2022/03/06 04:18:46;;;;;;;2.77;2.57;;;;;;;0.98;63.57;102095.63;5005568;28;20244;-57
2022/03/06 04:21:13;;;;;;;6.30;3.40;;;;;;;0.95;63.09;102093.78;5004482;28;20232;-54
2022/03/06 04:23:40;;;;;;;3.67;3.10;;;;;;;0.95;62.84;102096.38;5005065;28;20232;-56
2022/03/06 04:26:06;;;;;;;3.60;3.30;;;;;;;0.98;63.13;102100.81;5004847;28;20291;-55
2022/03/06 04:28:32;;;;;;;3.63;3.27;;;;;;;1.02;62.64;102097.59;5004204;28;20264;-55
2022/03/06 04:30:59;;;;;;;6.20;4.07;;;;;;;1.00;61.79;102092.34;5006067;28;20239;-56
2022/03/06 04:33:25;;;;;;;4.17;3.77;;;;;;;1.02;61.81;102097.59;5005633;28;20279;-56
2022/03/06 04:35:52;;;;;;;6.60;4.13;;;;;;;1.05;61.62;102097.78;5003871;28;20807;-56
2022/03/06 04:38:19;;;;;;;6.40;4.87;;;;;;;1.04;60.42;102099.47;5004239;28;20732;-56
2022/03/06 04:40:47;;;;;;;6.50;4.57;;;;;;;0.91;60.34;102100.47;5000965;28;20260;-55
2022/03/06 04:43:13;;;;;;;7.63;4.83;;;;;;;0.94;60.16;102105.78;5000652;28;20232;-56
2022/03/06 04:45:40;;;;;;;5.60;4.67;;;;;;;0.95;60.26;102105.00;5003912;28;20325;-57
2022/03/06 04:48:06;;;;;;;5.73;4.70;;;;;;;0.95;59.85;102110.19;5003711;28;20271;-56
2022/03/06 04:50:32;;;;;;;7.63;5.57;;;;;;;1.03;58.57;102109.75;5005013;28;20248;-56
2022/03/06 04:52:59;;;;;;;8.97;5.03;;;;;;;1.16;56.90;102099.34;5003719;28;20244;-57
2022/03/06 04:55:26;;;;;;;5.67;5.07;;;;;;;1.06;56.21;102109.94;5004379;28;20235;-55
2022/03/06 04:57:53;;;;;;;7.77;5.70;;;;;;;1.17;56.30;102104.59;5004446;28;20268;-56
2022/03/06 05:00:19;;;;;;;5.47;4.97;;;;;;;1.15;57.16;102107.88;4999243;28;20263;-56
2022/03/06 05:02:46;;;;;;;6.83;5.00;;;;;;;1.14;57.04;102109.56;5004590;28;20325;-57
2022/03/06 05:05:12;;;;;;;7.07;5.10;;;;;;;1.17;56.98;102101.13;5003128;28;20314;-56
2022/03/06 05:07:39;;;;;;;6.23;5.20;;;;;;;1.16;56.99;102102.81;5004874;28;20329;-56
2022/03/06 05:10:10;;;;;;;5.97;5.33;;;;;;;1.18;56.92;102097.72;5004043;28;20236;-56
2022/03/06 05:12:40;;;;;;;6.33;5.17;;;;;;;1.19;56.77;102094.31;5004123;28;20237;-57
2022/03/06 05:15:07;;;;;;;7.53;5.53;;;;;;;1.23;56.55;102095.38;5004170;28;20254;-56
2022/03/06 05:17:34;;;;;;;6.20;5.50;;;;;;;1.21;56.79;102097.00;5003031;28;20298;-58
2022/03/06 05:20:00;;;;;;;9.13;6.13;;;;;;;1.27;56.60;102105.13;5003014;28;20263;-56
2022/03/06 05:22:26;;;;;;;9.37;6.07;;;;;;;1.33;56.25;102098.59;5003759;28;20240;-56
2022/03/06 05:24:53;;;;;;;8.73;5.80;;;;;;;1.34;56.07;102103.00;5004568;28;20227;-56
2022/03/06 05:27:19;;;;;;;8.87;5.40;;;;;;;1.06;56.80;102104.75;5003359;28;20240;-58
2022/03/06 05:29:47;;;;;;;5.70;5.03;;;;;;;0.98;57.72;102101.69;5003810;28;20286;-58
2022/03/06 05:32:13;;;;;;;5.73;4.60;;;;;;;0.95;57.39;102102.44;5004228;28;20241;-57
2022/03/06 05:34:39;;;;;;;6.40;5.80;;;;;;;0.94;57.40;102103.22;5003737;28;20784;-57
2022/03/06 05:37:06;;;;;;;6.40;5.70;;;;;;;0.93;57.14;102103.13;5003172;28;20255;-56
2022/03/06 05:39:32;;;;;;;8.07;6.00;;;;;;;1.01;56.95;102101.88;5004478;28;20260;-56
2022/03/06 05:41:58;;;;;;;5.67;5.17;;;;;;;1.04;56.93;102098.59;5005941;28;20232;-57
2022/03/06 05:44:26;;;;;;;5.63;5.03;;;;;;;1.06;56.40;102102.19;5002559;28;20983;-57
2022/03/06 05:46:54;;;;;;;6.73;4.73;;;;;;;1.04;56.46;102103.75;5004684;28;20247;-57
2022/03/06 05:49:20;;;;;;;4.80;4.37;;;;;;;1.06;56.35;102104.75;5003793;28;20236;-57
2022/03/06 05:51:46;;;;;;;5.83;5.10;;;;;;;1.05;56.81;102097.78;5004231;28;20306;-55
2022/03/06 05:54:13;;;;;;;6.63;5.27;;;;;;;1.07;56.87;102096.19;5001540;28;20232;-57
2022/03/06 05:56:40;;;;;;;5.10;4.70;;;;;;;1.12;56.20;102090.50;5004286;28;20268;-57
2022/03/06 05:59:07;;;;;;;7.63;5.53;;;;;;;1.22;55.85;102096.19;5003714;28;20239;-56
2022/03/06 06:01:33;;;;;;;6.93;6.23;;;;;;;1.31;54.75;102092.47;5004984;28;20301;-56
2022/03/06 06:04:02;;;;;;;7.77;5.13;;;;;;;1.34;55.08;102094.34;4999610;28;20228;-56
2022/03/06 06:06:28;;;;;;;8.13;5.60;;;;;;;1.31;55.16;102092.47;5002666;28;20243;-55
2022/03/06 06:08:55;;;;;;;7.87;6.07;;;;;;;1.32;55.93;102103.69;5001562;28;20756;-55
2022/03/06 06:11:22;;;;;;;7.47;6.67;;;;;;;1.32;55.95;102102.00;5005327;28;20882;-56
2022/03/06 06:13:48;;;;;;;8.00;6.27;;;;;;;1.19;56.37;102091.72;5005061;28;20248;-57
2022/03/06 06:16:15;;;;;;;7.73;5.60;;;;;;;1.33;59.86;102108.94;5009548;28;20240;-55
2022/03/06 06:18:42;;;;;;;7.93;6.00;;;;;;;1.48;60.11;102102.91;5011061;28;20309;-56
2022/03/06 06:21:10;;;;;;;6.43;5.80;;;;;;;1.34;58.85;102105.59;5009104;28;20298;-58
2022/03/06 06:23:37;;;;;;;6.47;5.73;;;;;;;1.35;56.69;102101.28;5002932;28;20249;-57
2022/03/06 06:26:03;;;;;;;9.20;7.43;;;;;;;1.30;56.17;102098.44;5006505;28;20283;-56
2022/03/06 06:28:29;;;;;;;10.33;8.83;;;;;;;1.37;56.24;102099.66;5007176;28;20309;-56
2022/03/06 06:30:56;;;;;;;11.90;8.37;;;;;;;1.32;55.56;102099.41;5003532;28;20866;-58
2022/03/06 06:33:22;;;;;;;9.33;7.20;;;;;;;1.28;56.78;102101.75;5003968;28;20315;-54
2022/03/06 06:35:48;;;;;;;8.87;6.33;;;;;;;1.34;58.66;102102.09;5005033;28;20314;-55
2022/03/06 06:38:16;;;;;;;7.33;6.50;;;;;;;1.54;59.00;102103.25;5001562;28;20240;-54
2022/03/06 06:40:43;;;;;;;7.40;6.70;;;;;;;1.44;56.66;102099.25;5000018;28;20331;-58
2022/03/06 06:43:09;;;;;;;10.23;7.77;;;;;;;1.44;55.81;102099.25;5000851;28;20236;-56
2022/03/06 06:45:35;;;;;;;7.70;6.97;;;;;;;1.46;55.25;102101.91;5003117;28;20232;-58
2022/03/06 06:48:02;;;;;;;8.27;6.60;;;;;;;1.46;54.68;102097.63;5001871;28;20291;-57
2022/03/06 06:50:28;;;;;;;8.67;7.67;;;;;;;1.47;54.75;102101.09;5002980;28;20239;-58
2022/03/06 06:52:54;;;;;;;8.80;7.77;;;;;;;1.35;55.09;102104.78;5001098;28;20775;-57
2022/03/06 06:55:22;;;;;;;7.07;6.47;;;;;;;1.35;55.34;102107.34;5002995;28;20258;-58
2022/03/06 06:57:48;;;;;;;8.37;7.43;;;;;;;1.34;56.21;102108.16;5001793;28;20252;-55
2022/03/06 07:00:16;;;;;;;8.23;7.43;;;;;;;1.35;56.13;102107.34;4999022;28;20283;-57
2022/03/06 07:02:42;;;;;;;8.67;7.77;;;;;;;1.42;55.71;102113.78;5002827;28;20272;-56
2022/03/06 07:05:09;;;;;;;8.63;7.10;;;;;;;1.38;55.63;102117.88;5004371;28;20249;-56
2022/03/06 07:07:36;;;;;;;9.07;7.90;;;;;;;1.32;55.53;102120.09;5004176;28;20766;-57
2022/03/06 07:10:03;;;;;;;6.73;6.13;;;;;;;1.37;55.11;102126.47;5002576;28;20275;-55
2022/03/06 07:12:30;;;;;;;8.80;7.73;;;;;;;1.40;54.73;102124.06;4998518;28;20763;-57
2022/03/06 07:14:57;;;;;;;8.87;7.53;;;;;;;1.46;54.06;102122.63;5003434;28;20260;-56
2022/03/06 07:17:23;;;;;;;8.00;7.20;;;;;;;1.73;53.33;102128.50;5000915;28;20301;-55
2022/03/06 07:19:49;;;;;;;7.17;6.57;;;;;;;1.64;54.48;102121.09;5001859;28;20270;-56
2022/03/06 07:22:16;;;;;;;7.10;6.50;;;;;;;1.60;54.38;102121.72;5002810;28;20239;-57
2022/03/06 07:24:42;;;;;;;10.73;8.73;;;;;;;1.61;54.90;102123.50;5000540;28;20232;-57
2022/03/06 07:27:08;;;;;;;9.97;7.20;;;;;;;1.76;54.13;102121.81;5001682;28;20264;-57
2022/03/06 07:29:36;;;;;;;7.97;7.17;;;;;;;1.80;54.94;102123.75;5000215;28;20268;-54
2022/03/06 07:32:02;;;;;;;9.27;6.57;;;;;;;1.82;54.27;102135.06;5002320;28;20326;-56
2022/03/06 07:34:29;;;;;;;8.73;7.77;;;;;;;1.78;54.43;102127.94;5001498;28;20652;-56
2022/03/06 07:36:55;;;;;;;7.10;6.33;;;;;;;1.74;55.09;102131.16;5001860;28;20910;-55
2022/03/06 07:39:22;;;;;;;9.73;7.67;;;;;;;1.88;53.95;102134.53;5002066;28;20739;-57
2022/03/06 07:41:48;;;;;;;8.37;7.13;;;;;;;1.82;54.32;102142.84;4999104;28;20240;-57
2022/03/06 07:44:14;;;;;;;8.60;7.83;;;;;;;1.74;54.85;102140.63;5001354;28;20231;-56
2022/03/06 07:46:42;;;;;;;8.37;7.20;;;;;;;1.63;55.15;102142.59;5006144;28;20774;-57
2022/03/06 07:49:08;;;;;;;8.83;8.03;;;;;;;1.62;55.78;102143.41;5004607;28;20363;-55
2022/03/06 07:51:35;;;;;;;8.07;7.37;;;;;;;1.66;56.17;102133.31;5005454;28;20629;-54
2022/03/06 07:54:01;;;;;;;8.87;6.97;;;;;;;1.65;56.12;102130.63;5005913;28;20589;-55
2022/03/06 07:56:27;;;;;;;7.43;6.73;;;;;;;1.60;56.57;102139.84;5005014;28;20222;-56
2022/03/06 07:58:54;;;;;;;7.43;6.67;;;;;;;1.60;57.52;102145.00;5005816;28;20264;-56
2022/03/06 08:01:20;;;;;;;8.73;7.73;;;;;;;1.71;56.71;102146.53;5002961;28;20227;-57
2022/03/06 08:03:48;;;;;;;8.63;7.93;;;;;;;1.76;56.43;102142.53;5004902;28;20248;-56
2022/03/06 08:06:14;;;;;;;8.90;7.43;;;;;;;1.74;56.33;102144.09;5004725;28;20239;-58
2022/03/06 08:08:41;;;;;;;7.67;7.07;;;;;;;1.70;56.88;102149.91;5005760;28;20736;-57
2022/03/06 08:11:07;;;;;;;9.30;7.50;;;;;;;1.69;57.14;102148.16;5002255;28;20603;-58
2022/03/06 08:13:33;;;;;;;8.00;7.23;;;;;;;1.57;56.97;102145.72;5005627;28;20236;-57
2022/03/06 08:16:00;;;;;;;10.23;9.20;;;;;;;1.62;56.59;102146.00;5005959;28;20259;-56
2022/03/06 08:18:26;;;;;;;9.53;8.17;;;;;;;1.59;56.85;102145.81;5003816;28;20240;-59
2022/03/06 08:20:54;;;;;;;8.50;7.60;;;;;;;1.57;57.25;102147.41;4999066;28;20875;-55
2022/03/06 08:23:20;;;;;;;10.30;8.20;;;;;;;1.56;57.60;102150.81;5004689;28;20236;-57
2022/03/06 08:25:47;;;;;;;7.97;7.27;;;;;;;1.64;57.90;102154.75;5005670;28;20301;-56
2022/03/06 08:28:13;;;;;;;8.13;7.50;;;;;;;1.57;57.56;102148.31;5004302;28;20236;-56
2022/03/06 08:30:40;;;;;;;10.50;9.23;;;;;;;1.66;56.98;102159.22;5004063;28;20237;-57
2022/03/06 08:33:06;;;;;;;8.93;8.13;;;;;;;1.82;57.26;102160.06;5004844;28;20259;-56
2022/03/06 08:35:33;;;;;;;7.87;7.17;;;;;;;1.73;56.42;102160.47;5004876;28;20242;-55
2022/03/06 08:38:00;;;;;;;8.27;7.47;;;;;;;1.83;57.56;102165.38;5002355;28;20220;-56
2022/03/06 08:40:27;;;;;;;8.37;7.50;;;;;;;1.84;57.60;102163.66;5005299;28;20247;-57
2022/03/06 08:42:53;;;;;;;7.23;6.53;;;;;;;1.82;57.60;102165.25;5006908;28;20240;-57
2022/03/06 08:45:20;;;;;;;7.93;7.13;;;;;;;1.82;57.45;102168.72;5007135;28;20775;-57
2022/03/06 08:47:46;;;;;;;6.73;5.83;;;;;;;1.94;57.73;102172.84;5008748;28;20656;-56
2022/03/06 08:50:12;;;;;;;8.50;6.23;;;;;;;1.92;57.96;102172.75;5005293;28;20259;-57
2022/03/06 08:52:39;;;;;;;6.90;6.40;;;;;;;1.89;58.02;102172.56;4996943;28;21021;-57
2022/03/06 08:55:09;;;;;;;7.17;6.47;;;;;;;1.80;58.43;102167.78;5002997;28;20282;-57
2022/03/06 08:57:35;;;;;;;6.80;6.20;;;;;;;2.02;58.60;102174.19;5004865;28;20251;-56
2022/03/06 09:00:04;;;;;;;7.60;5.87;;;;;;;2.09;58.04;102164.25;5003424;28;20236;-58
2022/03/06 09:02:30;;;;;;;6.13;5.63;;;;;;;2.14;57.72;102172.25;5004502;28;20232;-56
2022/03/06 09:04:57;;;;;;;6.77;5.57;;;;;;;2.34;57.15;102163.03;5003170;28;20253;-56
2022/03/06 09:07:23;;;;;;;6.67;5.90;;;;;;;2.33;57.09;102166.44;5004020;28;20248;-57
2022/03/06 09:09:50;;;;;;;6.17;5.07;;;;;;;2.34;57.25;102161.31;5001963;28;20352;-56
2022/03/06 09:12:18;;;;;;;5.23;4.73;;;;;;;2.34;57.68;102169.09;5003070;28;20224;-56
2022/03/06 09:14:44;;;;;;;5.83;5.03;;;;;;;2.35;56.21;102176.09;5003095;28;20240;-55
2022/03/06 09:17:11;;;;;;;6.80;5.00;;;;;;;2.28;56.97;102171.38;5003842;28;20232;-56
2022/03/06 09:19:38;;;;;;;5.97;5.03;;;;;;;2.12;58.30;102176.47;5003749;28;20741;-56
2022/03/06 09:22:05;;;;;;;5.50;4.60;;;;;;;2.18;57.91;102170.72;5003547;28;20319;-55
2022/03/06 09:24:31;;;;;;;7.30;4.87;;;;;;;2.09;58.58;102163.34;5004101;28;20244;-55
2022/03/06 09:26:58;;;;;;;4.83;4.43;;;;;;;2.20;57.95;102163.94;5001829;28;20236;-57
2022/03/06 09:29:26;;;;;;;6.27;5.07;;;;;;;2.10;58.18;102170.31;5003170;28;20666;-57
2022/03/06 09:31:52;;;;;;;5.53;4.50;;;;;;;2.26;59.20;102170.38;5005566;28;20243;-58
2022/03/06 09:34:18;;;;;;;5.93;4.73;;;;;;;2.32;58.21;102172.44;5001978;28;20654;-55
2022/03/06 09:36:45;;;;;;;9.03;4.90;;;;;;;2.34;57.58;102174.28;5006935;28;20667;-57
2022/03/06 09:39:13;;;;;;;5.60;5.10;;;;;;;2.39;57.03;102167.66;5003456;28;20233;-57
2022/03/06 09:41:39;;;;;;;4.97;4.03;;;;;;;2.38;58.04;102170.16;5003708;28;20229;-57
2022/03/06 09:44:07;;;;;;;5.00;3.83;;;;;;;2.36;58.88;102171.78;5000779;28;20256;-57
2022/03/06 09:46:36;;;;;;;4.60;4.20;;;;;;;2.38;57.90;102164.97;4998518;28;20267;-56
2022/03/06 09:49:03;;;;;;;6.50;4.50;;;;;;;2.50;56.42;102164.78;5002206;28;20787;-55
2022/03/06 09:51:32;;;;;;;5.30;4.20;;;;;;;2.62;56.21;102168.91;5004026;28;20245;-57
2022/03/06 09:53:59;;;;;;;6.83;5.30;;;;;;;2.55;56.63;102173.69;5003258;28;20227;-56
2022/03/06 09:56:25;;;;;;;5.10;4.60;;;;;;;2.61;55.25;102174.03;5003043;28;20720;-58
2022/03/06 09:58:51;;;;;;;6.07;5.07;;;;;;;2.41;56.58;102172.03;5002075;28;20241;-55
2022/03/06 10:01:18;;;;;;;5.97;4.27;;;;;;;2.45;57.26;102173.97;5002609;28;20240;-58
2022/03/06 10:03:45;;;;;;;4.53;4.10;;;;;;;2.54;58.56;102174.50;5003230;28;20240;-56
2022/03/06 10:06:12;;;;;;;5.40;4.90;;;;;;;2.34;55.92;102176.88;5001786;28;20268;-55
2022/03/06 10:08:38;;;;;;;4.43;4.03;;;;;;;2.27;56.31;102169.56;5003298;28;20798;-55
2022/03/06 10:11:06;;;;;;;5.30;4.80;;;;;;;2.49;55.95;102178.50;5001489;28;20690;-57
2022/03/06 10:13:34;;;;;;;7.10;4.70;;;;;;;2.51;56.26;102169.13;5001332;28;20236;-57
2022/03/06 10:16:07;;;;;;;5.27;4.20;;;;;;;2.54;55.95;102175.38;4998818;28;20241;-56
2022/03/06 10:18:34;;;;;;;4.93;4.50;;;;;;;2.55;55.10;102174.56;5001962;28;20252;-55
2022/03/06 10:21:04;;;;;;;5.43;4.83;;;;;;;2.53;55.33;102175.31;5003344;28;20624;-55
2022/03/06 10:23:30;;;;;;;5.13;4.63;;;;;;;2.60;55.54;102172.25;5002695;28;20237;-56
2022/03/06 10:26:01;;;;;;;4.67;4.27;;;;;;;2.68;54.40;102170.94;5000467;28;20310;-54
2022/03/06 10:28:27;;;;;;;4.13;3.83;;;;;;;2.61;53.91;102163.66;5001152;28;20236;-56
2022/03/06 10:30:53;;;;;;;5.47;4.50;;;;;;;2.91;53.57;102168.69;5001883;28;20264;-58
2022/03/06 10:33:22;;;;;;;5.33;4.73;;;;;;;2.93;52.79;102172.25;5003811;28;20770;-58
2022/03/06 10:35:50;;;;;;;5.00;4.50;;;;;;;2.95;52.43;102171.53;5003515;28;20236;-56
2022/03/06 10:38:20;;;;;;;5.10;4.60;;;;;;;2.80;54.35;102171.59;5002179;28;20290;-57
2022/03/06 10:40:47;;;;;;;6.00;5.50;;;;;;;2.85;52.57;102170.16;5003714;28;20228;-58
2022/03/06 10:43:19;;;;;;;6.70;4.20;;;;;;;2.95;51.96;102168.03;5004010;28;20240;-58
2022/03/06 10:45:46;;;;;;;6.73;5.37;;;;;;;2.95;50.61;102175.81;5005415;28;20294;-57
2022/03/06 10:48:13;;;;;;;5.97;5.10;;;;;;;2.91;52.27;102172.16;5003591;28;20241;-59
2022/03/06 10:50:39;;;;;;;5.00;4.60;;;;;;;2.80;51.76;102183.66;5006616;28;20245;-58
2022/03/06 10:53:19;;;;;;;5.33;4.83;;;;;;;2.91;49.72;102179.06;5002057;28;20800;-57
2022/03/06 10:55:45;;;;;;;6.33;4.73;;;;;;;2.92;50.19;102180.88;4999591;28;20635;-57
2022/03/06 10:58:12;;;;;;;5.47;4.70;;;;;;;3.09;49.62;102183.53;5000819;28;20570;-56
2022/03/06 11:00:39;;;;;;;6.07;5.47;;;;;;;3.16;49.45;102170.84;4997787;28;20260;-56
2022/03/06 11:03:07;;;;;;;4.83;4.40;;;;;;;3.15;49.27;102172.56;4999662;28;20275;-56
2022/03/06 11:05:34;;;;;;;5.87;5.37;;;;;;;3.10;48.54;102167.16;4997674;28;20237;-57
2022/03/06 11:08:00;;;;;;;5.70;5.20;;;;;;;2.97;49.33;102164.72;5000277;28;20232;-57
2022/03/06 11:10:28;;;;;;;5.10;4.60;;;;;;;2.89;49.97;102170.31;4999411;28;20974;-57
2022/03/06 11:12:55;;;;;;;6.63;4.93;;;;;;;3.03;49.41;102164.16;5000994;28;20239;-57
2022/03/06 11:15:21;;;;;;;5.00;4.60;;;;;;;3.20;48.95;102165.03;4999236;28;20252;-56
2022/03/06 11:17:48;;;;;;;5.50;4.53;;;;;;;3.16;48.76;102161.41;5003028;28;20237;-57
2022/03/06 11:20:14;;;;;;;5.17;4.77;;;;;;;3.28;48.86;102161.13;5002361;28;20334;-55
2022/03/06 11:22:48;;;;;;;5.07;4.57;;;;;;;3.43;47.69;102161.03;5001832;28;20351;-56
2022/03/06 11:25:20;;;;;;;7.47;4.83;;;;;;;3.38;47.22;102157.31;4998962;28;20232;-57
2022/03/06 11:27:56;;;;;;;5.23;4.77;;;;;;;3.34;48.80;102158.84;5003499;28;20244;-57
2022/03/06 11:30:23;;;;;;;7.03;4.90;;;;;;;3.21;49.00;102164.22;5000896;28;20239;-57
2022/03/06 11:33:00;;;;;;;5.17;4.77;;;;;;;3.30;50.26;102165.59;5002829;28;20240;-56